Hua Hin, Thailand
Current Conditions -  °F | °C
As of 10:30 AM on Saturday 25 Oct 2014 (Local Time) from VTBU Reporting Station
Broken Clouds Broken Clouds  
Wind Chill: 29°   Ceiling: 30000
Heat Index: 34°   Visibility: 6mi
Dew Point: 24°   Wind: 3mph
Humidity: 74%   Direction: 160°SSE
Pressure: 29.88"   Gusts: NA
Location:  12.57°N, 99.95°E
Report Text: VTBU 250330Z 16003KT 9999 FEW020CB BKN300 29/24 Q1012 A2991 CB SESW
Loading
Personal Weather Stations






























Interactive Weather Map New forecast layout! Learn more

10-Day Weather Forecast

Advertisements
Track Severe Weather on mobile